sensor_id;sensor_type;location;lat;lon;timestamp;P1;durP1;ratioP1;P2;durP2;ratioP2
11384;SDS011;5747;56.748;13.882;2023-07-30T00:00:13;32.07;;;16.03;;
11384;SDS011;5747;56.748;13.882;2023-07-30T00:02:41;34.00;;;16.67;;
11384;SDS011;5747;56.748;13.882;2023-07-30T00:05:09;33.50;;;16.97;;
11384;SDS011;5747;56.748;13.882;2023-07-30T00:07:37;35.00;;;18.27;;
11384;SDS011;5747;56.748;13.882;2023-07-30T00:10:06;36.27;;;17.30;;
11384;SDS011;5747;56.748;13.882;2023-07-30T00:12:36;38.23;;;17.87;;
11384;SDS011;5747;56.748;13.882;2023-07-30T00:15:04;36.53;;;17.80;;
11384;SDS011;5747;56.748;13.882;2023-07-30T00:17:33;33.13;;;17.27;;
11384;SDS011;5747;56.748;13.882;2023-07-30T00:20:02;34.80;;;17.00;;
11384;SDS011;5747;56.748;13.882;2023-07-30T00:22:31;33.03;;;16.97;;
11384;SDS011;5747;56.748;13.882;2023-07-30T00:24:59;31.27;;;17.07;;
11384;SDS011;5747;56.748;13.882;2023-07-30T00:27:27;32.50;;;17.30;;
11384;SDS011;5747;56.748;13.882;2023-07-30T00:29:57;32.50;;;15.50;;
11384;SDS011;5747;56.748;13.882;2023-07-30T00:32:25;34.23;;;17.43;;
11384;SDS011;5747;56.748;13.882;2023-07-30T00:34:54;30.03;;;16.60;;
11384;SDS011;5747;56.748;13.882;2023-07-30T00:37:22;30.53;;;16.97;;
11384;SDS011;5747;56.748;13.882;2023-07-30T00:39:50;28.17;;;16.07;;
11384;SDS011;5747;56.748;13.882;2023-07-30T00:42:19;31.53;;;16.87;;
11384;SDS011;5747;56.748;13.882;2023-07-30T00:44:47;24.70;;;15.27;;
11384;SDS011;5747;56.748;13.882;2023-07-30T00:47:17;30.10;;;16.43;;
11384;SDS011;5747;56.748;13.882;2023-07-30T00:49:45;28.77;;;15.73;;
11384;SDS011;5747;56.748;13.882;2023-07-30T00:52:13;26.23;;;16.57;;
11384;SDS011;5747;56.748;13.882;2023-07-30T00:54:43;26.30;;;16.53;;
11384;SDS011;5747;56.748;13.882;2023-07-30T00:57:12;33.97;;;18.37;;
11384;SDS011;5747;56.748;13.882;2023-07-30T00:59:41;30.70;;;16.93;;
11384;SDS011;5747;56.748;13.882;2023-07-30T01:02:09;30.23;;;18.53;;
11384;SDS011;5747;56.748;13.882;2023-07-30T01:04:39;40.40;;;18.93;;
11384;SDS011;5747;56.748;13.882;2023-07-30T01:07:08;29.97;;;18.47;;
11384;SDS011;5747;56.748;13.882;2023-07-30T01:09:36;34.43;;;18.43;;
11384;SDS011;5747;56.748;13.882;2023-07-30T01:12:05;37.60;;;19.83;;
11384;SDS011;5747;56.748;13.882;2023-07-30T01:14:34;32.97;;;19.07;;
11384;SDS011;5747;56.748;13.882;2023-07-30T01:17:04;30.30;;;18.40;;
11384;SDS011;5747;56.748;13.882;2023-07-30T01:19:32;32.03;;;17.23;;
11384;SDS011;5747;56.748;13.882;2023-07-30T01:22:02;32.60;;;18.10;;
11384;SDS011;5747;56.748;13.882;2023-07-30T01:24:30;24.73;;;16.57;;
11384;SDS011;5747;56.748;13.882;2023-07-30T01:26:59;27.20;;;17.13;;
11384;SDS011;5747;56.748;13.882;2023-07-30T01:29:32;21.87;;;15.87;;
11384;SDS011;5747;56.748;13.882;2023-07-30T01:32:07;26.77;;;17.23;;
11384;SDS011;5747;56.748;13.882;2023-07-30T01:34:36;26.67;;;16.47;;
11384;SDS011;5747;56.748;13.882;2023-07-30T01:37:08;21.33;;;14.93;;
11384;SDS011;5747;56.748;13.882;2023-07-30T01:39:39;22.57;;;15.00;;
11384;SDS011;5747;56.748;13.882;2023-07-30T01:42:11;21.53;;;14.67;;
11384;SDS011;5747;56.748;13.882;2023-07-30T01:44:39;19.60;;;13.83;;
11384;SDS011;5747;56.748;13.882;2023-07-30T01:47:08;37.83;;;14.47;;
11384;SDS011;5747;56.748;13.882;2023-07-30T01:49:36;200.77;;;15.37;;
11384;SDS011;5747;56.748;13.882;2023-07-30T01:52:04;287.47;;;17.87;;
11384;SDS011;5747;56.748;13.882;2023-07-30T01:54:34;93.10;;;12.50;;
11384;SDS011;5747;56.748;13.882;2023-07-30T01:57:03;370.20;;;18.63;;
11384;SDS011;5747;56.748;13.882;2023-07-30T01:59:31;272.07;;;16.83;;
11384;SDS011;5747;56.748;13.882;2023-07-30T02:02:00;262.57;;;12.67;;
11384;SDS011;5747;56.748;13.882;2023-07-30T02:04:28;239.07;;;14.13;;
11384;SDS011;5747;56.748;13.882;2023-07-30T02:06:56;233.57;;;13.83;;
11384;SDS011;5747;56.748;13.882;2023-07-30T02:09:23;241.97;;;13.83;;
11384;SDS011;5747;56.748;13.882;2023-07-30T02:11:53;33.77;;;8.60;;
11384;SDS011;5747;56.748;13.882;2023-07-30T02:14:21;128.13;;;10.87;;
11384;SDS011;5747;56.748;13.882;2023-07-30T02:16:49;13.87;;;7.43;;
11384;SDS011;5747;56.748;13.882;2023-07-30T02:19:17;9.67;;;6.20;;
11384;SDS011;5747;56.748;13.882;2023-07-30T02:21:46;57.67;;;9.73;;
11384;SDS011;5747;56.748;13.882;2023-07-30T02:24:14;74.27;;;9.60;;
11384;SDS011;5747;56.748;13.882;2023-07-30T02:26:42;68.30;;;10.37;;
11384;SDS011;5747;56.748;13.882;2023-07-30T02:29:11;71.03;;;10.67;;
11384;SDS011;5747;56.748;13.882;2023-07-30T02:31:39;73.57;;;11.63;;
11384;SDS011;5747;56.748;13.882;2023-07-30T02:34:08;68.43;;;10.53;;
11384;SDS011;5747;56.748;13.882;2023-07-30T02:36:36;10.80;;;9.50;;
11384;SDS011;5747;56.748;13.882;2023-07-30T02:39:04;51.90;;;10.63;;
11384;SDS011;5747;56.748;13.882;2023-07-30T02:41:32;27.70;;;8.53;;
11384;SDS011;5747;56.748;13.882;2023-07-30T02:44:01;27.97;;;10.57;;
11384;SDS011;5747;56.748;13.882;2023-07-30T02:46:30;471.47;;;21.27;;
11384;SDS011;5747;56.748;13.882;2023-07-30T02:48:58;189.87;;;14.43;;
11384;SDS011;5747;56.748;13.882;2023-07-30T02:51:26;74.97;;;11.23;;
11384;SDS011;5747;56.748;13.882;2023-07-30T02:53:56;254.27;;;15.43;;
11384;SDS011;5747;56.748;13.882;2023-07-30T02:56:26;48.10;;;10.00;;
11384;SDS011;5747;56.748;13.882;2023-07-30T02:58:54;59.47;;;9.73;;
11384;SDS011;5747;56.748;13.882;2023-07-30T03:01:22;10.07;;;9.07;;
11384;SDS011;5747;56.748;13.882;2023-07-30T03:03:52;14.53;;;9.47;;
11384;SDS011;5747;56.748;13.882;2023-07-30T03:06:20;13.30;;;9.77;;
11384;SDS011;5747;56.748;13.882;2023-07-30T03:08:48;11.30;;;9.77;;
11384;SDS011;5747;56.748;13.882;2023-07-30T03:11:16;14.27;;;10.80;;
11384;SDS011;5747;56.748;13.882;2023-07-30T03:13:44;12.37;;;10.10;;
11384;SDS011;5747;56.748;13.882;2023-07-30T03:16:13;11.77;;;9.87;;
11384;SDS011;5747;56.748;13.882;2023-07-30T03:18:41;14.93;;;10.03;;
11384;SDS011;5747;56.748;13.882;2023-07-30T03:21:11;11.97;;;9.73;;
11384;SDS011;5747;56.748;13.882;2023-07-30T03:23:39;12.53;;;10.63;;
11384;SDS011;5747;56.748;13.882;2023-07-30T03:26:09;12.57;;;10.07;;
11384;SDS011;5747;56.748;13.882;2023-07-30T03:28:37;11.43;;;9.13;;
11384;SDS011;5747;56.748;13.882;2023-07-30T03:31:06;11.03;;;9.30;;
11384;SDS011;5747;56.748;13.882;2023-07-30T03:33:35;11.53;;;8.93;;
11384;SDS011;5747;56.748;13.882;2023-07-30T03:36:05;10.63;;;8.20;;
11384;SDS011;5747;56.748;13.882;2023-07-30T03:38:35;10.70;;;7.70;;
11384;SDS011;5747;56.748;13.882;2023-07-30T03:41:04;7.83;;;7.07;;
11384;SDS011;5747;56.748;13.882;2023-07-30T03:43:33;9.67;;;7.77;;
11384;SDS011;5747;56.748;13.882;2023-07-30T03:46:01;9.33;;;6.87;;
11384;SDS011;5747;56.748;13.882;2023-07-30T03:48:30;8.50;;;7.10;;
11384;SDS011;5747;56.748;13.882;2023-07-30T03:50:58;10.63;;;6.47;;
11384;SDS011;5747;56.748;13.882;2023-07-30T03:53:26;8.73;;;6.20;;
11384;SDS011;5747;56.748;13.882;2023-07-30T03:55:56;8.27;;;6.50;;
11384;SDS011;5747;56.748;13.882;2023-07-30T03:58:25;7.23;;;6.37;;
11384;SDS011;5747;56.748;13.882;2023-07-30T04:00:53;8.60;;;6.73;;
11384;SDS011;5747;56.748;13.882;2023-07-30T04:03:21;12.03;;;6.83;;
11384;SDS011;5747;56.748;13.882;2023-07-30T04:05:50;9.57;;;7.00;;
11384;SDS011;5747;56.748;13.882;2023-07-30T04:08:18;9.13;;;6.77;;
11384;SDS011;5747;56.748;13.882;2023-07-30T04:10:47;10.20;;;7.10;;
11384;SDS011;5747;56.748;13.882;2023-07-30T04:13:17;8.23;;;6.60;;
11384;SDS011;5747;56.748;13.882;2023-07-30T04:15:46;7.30;;;6.47;;
11384;SDS011;5747;56.748;13.882;2023-07-30T04:18:15;8.90;;;7.07;;
11384;SDS011;5747;56.748;13.882;2023-07-30T04:20:43;9.93;;;6.87;;
11384;SDS011;5747;56.748;13.882;2023-07-30T04:23:12;8.40;;;7.60;;
11384;SDS011;5747;56.748;13.882;2023-07-30T04:25:40;7.87;;;6.53;;
11384;SDS011;5747;56.748;13.882;2023-07-30T04:28:08;10.33;;;5.93;;
11384;SDS011;5747;56.748;13.882;2023-07-30T04:30:37;7.00;;;5.50;;
11384;SDS011;5747;56.748;13.882;2023-07-30T04:33:06;6.20;;;5.10;;
11384;SDS011;5747;56.748;13.882;2023-07-30T04:35:36;7.47;;;5.23;;
11384;SDS011;5747;56.748;13.882;2023-07-30T04:38:05;7.13;;;5.03;;
11384;SDS011;5747;56.748;13.882;2023-07-30T04:40:34;10.50;;;5.47;;
11384;SDS011;5747;56.748;13.882;2023-07-30T04:43:02;8.70;;;5.50;;
11384;SDS011;5747;56.748;13.882;2023-07-30T04:45:30;6.50;;;5.27;;
11384;SDS011;5747;56.748;13.882;2023-07-30T04:47:59;5.90;;;5.03;;
11384;SDS011;5747;56.748;13.882;2023-07-30T04:50:28;5.93;;;5.13;;
11384;SDS011;5747;56.748;13.882;2023-07-30T04:52:57;4.93;;;4.43;;
11384;SDS011;5747;56.748;13.882;2023-07-30T04:55:26;5.90;;;4.80;;
11384;SDS011;5747;56.748;13.882;2023-07-30T04:57:55;6.30;;;5.10;;
11384;SDS011;5747;56.748;13.882;2023-07-30T05:00:24;6.47;;;4.90;;
11384;SDS011;5747;56.748;13.882;2023-07-30T05:02:52;6.37;;;5.67;;
11384;SDS011;5747;56.748;13.882;2023-07-30T05:05:21;9.03;;;5.07;;
11384;SDS011;5747;56.748;13.882;2023-07-30T05:07:50;5.97;;;5.37;;
11384;SDS011;5747;56.748;13.882;2023-07-30T05:10:18;7.40;;;5.20;;
11384;SDS011;5747;56.748;13.882;2023-07-30T05:12:46;6.17;;;5.57;;
11384;SDS011;5747;56.748;13.882;2023-07-30T05:15:14;5.70;;;4.93;;
11384;SDS011;5747;56.748;13.882;2023-07-30T05:17:42;6.57;;;4.87;;
11384;SDS011;5747;56.748;13.882;2023-07-30T05:20:11;6.50;;;4.80;;
11384;SDS011;5747;56.748;13.882;2023-07-30T05:22:40;6.23;;;5.03;;
11384;SDS011;5747;56.748;13.882;2023-07-30T05:25:08;8.60;;;5.43;;
11384;SDS011;5747;56.748;13.882;2023-07-30T05:27:37;7.53;;;5.30;;
11384;SDS011;5747;56.748;13.882;2023-07-30T05:30:05;5.87;;;5.00;;
11384;SDS011;5747;56.748;13.882;2023-07-30T05:32:34;7.37;;;4.90;;
11384;SDS011;5747;56.748;13.882;2023-07-30T05:35:02;6.37;;;4.67;;
11384;SDS011;5747;56.748;13.882;2023-07-30T05:37:31;8.57;;;4.07;;
11384;SDS011;5747;56.748;13.882;2023-07-30T05:40:00;4.63;;;3.83;;
11384;SDS011;5747;56.748;13.882;2023-07-30T05:42:29;5.17;;;4.40;;
11384;SDS011;5747;56.748;13.882;2023-07-30T05:44:57;5.00;;;4.53;;
11384;SDS011;5747;56.748;13.882;2023-07-30T05:47:26;4.47;;;3.40;;
11384;SDS011;5747;56.748;13.882;2023-07-30T05:49:54;4.73;;;3.67;;
11384;SDS011;5747;56.748;13.882;2023-07-30T05:52:22;7.27;;;3.80;;
11384;SDS011;5747;56.748;13.882;2023-07-30T05:54:50;7.97;;;3.80;;
11384;SDS011;5747;56.748;13.882;2023-07-30T05:57:20;4.97;;;3.40;;
11384;SDS011;5747;56.748;13.882;2023-07-30T05:59:48;5.20;;;3.50;;
11384;SDS011;5747;56.748;13.882;2023-07-30T06:02:16;7.00;;;3.37;;
11384;SDS011;5747;56.748;13.882;2023-07-30T06:04:44;8.17;;;2.77;;
11384;SDS011;5747;56.748;13.882;2023-07-30T06:07:12;4.23;;;3.50;;
11384;SDS011;5747;56.748;13.882;2023-07-30T06:09:41;7.30;;;3.43;;
11384;SDS011;5747;56.748;13.882;2023-07-30T06:12:09;4.33;;;3.30;;
11384;SDS011;5747;56.748;13.882;2023-07-30T06:14:38;5.30;;;3.13;;
11384;SDS011;5747;56.748;13.882;2023-07-30T06:17:06;4.17;;;3.47;;
11384;SDS011;5747;56.748;13.882;2023-07-30T06:19:35;3.77;;;3.30;;
11384;SDS011;5747;56.748;13.882;2023-07-30T06:22:03;4.57;;;3.13;;
11384;SDS011;5747;56.748;13.882;2023-07-30T06:24:31;3.93;;;3.27;;
11384;SDS011;5747;56.748;13.882;2023-07-30T06:27:11;3.87;;;3.47;;
11384;SDS011;5747;56.748;13.882;2023-07-30T06:29:41;3.83;;;3.40;;
11384;SDS011;5747;56.748;13.882;2023-07-30T06:32:09;12.13;;;4.40;;
11384;SDS011;5747;56.748;13.882;2023-07-30T06:34:37;5.87;;;3.73;;
11384;SDS011;5747;56.748;13.882;2023-07-30T06:37:05;7.13;;;4.00;;
11384;SDS011;5747;56.748;13.882;2023-07-30T06:39:33;5.60;;;3.87;;
11384;SDS011;5747;56.748;13.882;2023-07-30T06:42:02;6.03;;;4.10;;
11384;SDS011;5747;56.748;13.882;2023-07-30T06:44:30;4.10;;;3.70;;
11384;SDS011;5747;56.748;13.882;2023-07-30T06:47:00;5.33;;;4.17;;
11384;SDS011;5747;56.748;13.882;2023-07-30T06:49:28;5.63;;;3.80;;
11384;SDS011;5747;56.748;13.882;2023-07-30T06:51:56;6.93;;;4.33;;
11384;SDS011;5747;56.748;13.882;2023-07-30T06:54:24;7.97;;;4.73;;
11384;SDS011;5747;56.748;13.882;2023-07-30T06:56:52;6.63;;;4.17;;
11384;SDS011;5747;56.748;13.882;2023-07-30T06:59:20;6.57;;;4.43;;
11384;SDS011;5747;56.748;13.882;2023-07-30T07:01:48;6.77;;;4.40;;
11384;SDS011;5747;56.748;13.882;2023-07-30T07:04:18;15.33;;;5.00;;
11384;SDS011;5747;56.748;13.882;2023-07-30T07:06:46;9.07;;;4.67;;
11384;SDS011;5747;56.748;13.882;2023-07-30T07:09:14;11.77;;;4.30;;
11384;SDS011;5747;56.748;13.882;2023-07-30T07:11:42;7.43;;;4.43;;
11384;SDS011;5747;56.748;13.882;2023-07-30T07:14:10;7.30;;;4.80;;
11384;SDS011;5747;56.748;13.882;2023-07-30T07:16:39;5.10;;;4.40;;
11384;SDS011;5747;56.748;13.882;2023-07-30T07:19:07;9.00;;;4.80;;
11384;SDS011;5747;56.748;13.882;2023-07-30T07:21:36;6.93;;;4.63;;
11384;SDS011;5747;56.748;13.882;2023-07-30T07:24:05;5.53;;;4.50;;
11384;SDS011;5747;56.748;13.882;2023-07-30T07:26:34;4.90;;;4.00;;
11384;SDS011;5747;56.748;13.882;2023-07-30T07:29:03;5.03;;;4.60;;
11384;SDS011;5747;56.748;13.882;2023-07-30T07:31:31;6.97;;;4.37;;
11384;SDS011;5747;56.748;13.882;2023-07-30T07:34:01;10.33;;;3.93;;
11384;SDS011;5747;56.748;13.882;2023-07-30T07:36:29;6.07;;;3.90;;
11384;SDS011;5747;56.748;13.882;2023-07-30T07:38:59;4.50;;;3.53;;
11384;SDS011;5747;56.748;13.882;2023-07-30T07:41:27;4.37;;;3.67;;
11384;SDS011;5747;56.748;13.882;2023-07-30T07:43:55;6.47;;;4.07;;
11384;SDS011;5747;56.748;13.882;2023-07-30T07:46:23;6.80;;;3.60;;
11384;SDS011;5747;56.748;13.882;2023-07-30T07:48:54;7.03;;;3.83;;
11384;SDS011;5747;56.748;13.882;2023-07-30T07:51:22;7.00;;;3.80;;
11384;SDS011;5747;56.748;13.882;2023-07-30T07:53:50;8.53;;;4.03;;
11384;SDS011;5747;56.748;13.882;2023-07-30T07:56:20;9.03;;;4.03;;
11384;SDS011;5747;56.748;13.882;2023-07-30T07:58:48;5.60;;;3.93;;
11384;SDS011;5747;56.748;13.882;2023-07-30T08:01:16;10.17;;;4.43;;
11384;SDS011;5747;56.748;13.882;2023-07-30T08:03:44;6.63;;;3.70;;
11384;SDS011;5747;56.748;13.882;2023-07-30T08:06:12;8.07;;;3.40;;
11384;SDS011;5747;56.748;13.882;2023-07-30T08:08:40;4.87;;;3.33;;
11384;SDS011;5747;56.748;13.882;2023-07-30T08:11:09;6.00;;;3.40;;
11384;SDS011;5747;56.748;13.882;2023-07-30T08:13:38;6.77;;;3.20;;
11384;SDS011;5747;56.748;13.882;2023-07-30T08:16:06;7.77;;;3.50;;
11384;SDS011;5747;56.748;13.882;2023-07-30T08:18:34;8.07;;;3.83;;
11384;SDS011;5747;56.748;13.882;2023-07-30T08:21:02;6.33;;;3.33;;
11384;SDS011;5747;56.748;13.882;2023-07-30T08:23:31;7.17;;;3.40;;
11384;SDS011;5747;56.748;13.882;2023-07-30T08:25:59;6.37;;;3.20;;
11384;SDS011;5747;56.748;13.882;2023-07-30T08:28:27;4.57;;;3.47;;
11384;SDS011;5747;56.748;13.882;2023-07-30T08:31:00;3.50;;;3.10;;
11384;SDS011;5747;56.748;13.882;2023-07-30T08:33:29;4.73;;;3.00;;
11384;SDS011;5747;56.748;13.882;2023-07-30T08:35:58;5.90;;;3.50;;
11384;SDS011;5747;56.748;13.882;2023-07-30T08:38:27;3.93;;;2.60;;
11384;SDS011;5747;56.748;13.882;2023-07-30T08:40:56;4.83;;;2.47;;
11384;SDS011;5747;56.748;13.882;2023-07-30T08:43:24;4.67;;;2.60;;
11384;SDS011;5747;56.748;13.882;2023-07-30T08:45:53;2.77;;;2.30;;
11384;SDS011;5747;56.748;13.882;2023-07-30T08:48:22;5.20;;;2.50;;
11384;SDS011;5747;56.748;13.882;2023-07-30T08:50:50;5.90;;;3.03;;
11384;SDS011;5747;56.748;13.882;2023-07-30T08:53:18;4.43;;;2.40;;
11384;SDS011;5747;56.748;13.882;2023-07-30T08:55:47;5.10;;;3.20;;
11384;SDS011;5747;56.748;13.882;2023-07-30T08:58:15;5.47;;;2.90;;
11384;SDS011;5747;56.748;13.882;2023-07-30T09:00:45;6.60;;;3.13;;
11384;SDS011;5747;56.748;13.882;2023-07-30T09:03:18;6.77;;;2.50;;
11384;SDS011;5747;56.748;13.882;2023-07-30T09:05:48;3.87;;;2.33;;
11384;SDS011;5747;56.748;13.882;2023-07-30T09:08:17;6.60;;;2.53;;
11384;SDS011;5747;56.748;13.882;2023-07-30T09:10:45;4.23;;;2.20;;
11384;SDS011;5747;56.748;13.882;2023-07-30T09:13:20;5.30;;;2.00;;
11384;SDS011;5747;56.748;13.882;2023-07-30T09:15:49;5.17;;;2.30;;
11384;SDS011;5747;56.748;13.882;2023-07-30T09:18:17;2.97;;;2.20;;
11384;SDS011;5747;56.748;13.882;2023-07-30T09:20:45;4.70;;;2.20;;
11384;SDS011;5747;56.748;13.882;2023-07-30T09:23:16;3.20;;;2.10;;
11384;SDS011;5747;56.748;13.882;2023-07-30T09:25:45;8.73;;;2.53;;
11384;SDS011;5747;56.748;13.882;2023-07-30T09:28:15;6.77;;;2.40;;
11384;SDS011;5747;56.748;13.882;2023-07-30T09:30:48;4.33;;;2.30;;
11384;SDS011;5747;56.748;13.882;2023-07-30T09:33:18;4.00;;;2.20;;
11384;SDS011;5747;56.748;13.882;2023-07-30T09:35:48;5.97;;;2.40;;
11384;SDS011;5747;56.748;13.882;2023-07-30T09:38:18;2.77;;;2.00;;
11384;SDS011;5747;56.748;13.882;2023-07-30T09:40:46;5.00;;;2.10;;
11384;SDS011;5747;56.748;13.882;2023-07-30T09:43:16;5.30;;;2.23;;
11384;SDS011;5747;56.748;13.882;2023-07-30T09:45:45;6.40;;;2.17;;
11384;SDS011;5747;56.748;13.882;2023-07-30T09:48:14;3.33;;;2.07;;
11384;SDS011;5747;56.748;13.882;2023-07-30T09:50:42;5.00;;;2.10;;
11384;SDS011;5747;56.748;13.882;2023-07-30T09:53:11;5.13;;;2.07;;
11384;SDS011;5747;56.748;13.882;2023-07-30T09:55:44;4.57;;;1.77;;
11384;SDS011;5747;56.748;13.882;2023-07-30T09:58:12;3.37;;;1.70;;
11384;SDS011;5747;56.748;13.882;2023-07-30T10:00:40;5.87;;;1.90;;
11384;SDS011;5747;56.748;13.882;2023-07-30T10:03:12;5.30;;;1.77;;
11384;SDS011;5747;56.748;13.882;2023-07-30T10:05:43;4.90;;;1.50;;
11384;SDS011;5747;56.748;13.882;2023-07-30T10:08:15;3.63;;;1.70;;
11384;SDS011;5747;56.748;13.882;2023-07-30T10:10:50;5.07;;;1.80;;
11384;SDS011;5747;56.748;13.882;2023-07-30T10:13:21;4.10;;;1.67;;
11384;SDS011;5747;56.748;13.882;2023-07-30T10:15:50;3.00;;;1.50;;
11384;SDS011;5747;56.748;13.882;2023-07-30T10:18:18;7.10;;;1.73;;
11384;SDS011;5747;56.748;13.882;2023-07-30T10:20:52;4.33;;;1.50;;
11384;SDS011;5747;56.748;13.882;2023-07-30T10:23:26;5.17;;;1.90;;
11384;SDS011;5747;56.748;13.882;2023-07-30T10:25:57;5.97;;;2.00;;
11384;SDS011;5747;56.748;13.882;2023-07-30T10:28:26;3.53;;;1.77;;
11384;SDS011;5747;56.748;13.882;2023-07-30T10:30:59;6.00;;;1.80;;
11384;SDS011;5747;56.748;13.882;2023-07-30T10:33:43;5.07;;;1.77;;
11384;SDS011;5747;56.748;13.882;2023-07-30T10:36:12;6.43;;;1.77;;
11384;SDS011;5747;56.748;13.882;2023-07-30T10:38:40;7.67;;;2.23;;
11384;SDS011;5747;56.748;13.882;2023-07-30T10:41:12;4.53;;;1.70;;
11384;SDS011;5747;56.748;13.882;2023-07-30T10:43:43;2.70;;;1.60;;
11384;SDS011;5747;56.748;13.882;2023-07-30T10:46:14;7.70;;;2.13;;
11384;SDS011;5747;56.748;13.882;2023-07-30T10:48:45;4.27;;;1.37;;
11384;SDS011;5747;56.748;13.882;2023-07-30T10:51:15;3.63;;;1.70;;
11384;SDS011;5747;56.748;13.882;2023-07-30T10:53:44;4.77;;;1.43;;
11384;SDS011;5747;56.748;13.882;2023-07-30T10:56:15;2.73;;;1.40;;
11384;SDS011;5747;56.748;13.882;2023-07-30T10:58:48;2.80;;;1.30;;
11384;SDS011;5747;56.748;13.882;2023-07-30T11:01:17;3.17;;;1.30;;
11384;SDS011;5747;56.748;13.882;2023-07-30T11:03:48;3.40;;;1.90;;
11384;SDS011;5747;56.748;13.882;2023-07-30T11:06:21;4.03;;;1.43;;
11384;SDS011;5747;56.748;13.882;2023-07-30T11:08:50;4.00;;;1.60;;
11384;SDS011;5747;56.748;13.882;2023-07-30T11:11:19;4.70;;;1.53;;
11384;SDS011;5747;56.748;13.882;2023-07-30T11:13:50;4.20;;;1.57;;
11384;SDS011;5747;56.748;13.882;2023-07-30T11:16:19;4.87;;;1.57;;
11384;SDS011;5747;56.748;13.882;2023-07-30T11:18:47;3.37;;;1.30;;
11384;SDS011;5747;56.748;13.882;2023-07-30T11:21:16;2.67;;;1.13;;
11384;SDS011;5747;56.748;13.882;2023-07-30T11:23:45;2.37;;;1.30;;
11384;SDS011;5747;56.748;13.882;2023-07-30T11:26:14;3.57;;;1.47;;
11384;SDS011;5747;56.748;13.882;2023-07-30T11:28:45;3.13;;;1.47;;
11384;SDS011;5747;56.748;13.882;2023-07-30T11:31:13;3.23;;;1.50;;
11384;SDS011;5747;56.748;13.882;2023-07-30T11:33:46;5.63;;;1.37;;
11384;SDS011;5747;56.748;13.882;2023-07-30T11:36:15;5.97;;;1.50;;
11384;SDS011;5747;56.748;13.882;2023-07-30T11:38:46;2.00;;;1.43;;
11384;SDS011;5747;56.748;13.882;2023-07-30T11:41:15;5.00;;;1.50;;
11384;SDS011;5747;56.748;13.882;2023-07-30T11:43:45;4.77;;;1.87;;
11384;SDS011;5747;56.748;13.882;2023-07-30T11:46:13;3.47;;;1.57;;
11384;SDS011;5747;56.748;13.882;2023-07-30T11:48:44;3.20;;;1.60;;
11384;SDS011;5747;56.748;13.882;2023-07-30T11:51:20;4.23;;;1.60;;
11384;SDS011;5747;56.748;13.882;2023-07-30T11:53:50;3.03;;;1.50;;
11384;SDS011;5747;56.748;13.882;2023-07-30T11:56:20;3.80;;;1.40;;
11384;SDS011;5747;56.748;13.882;2023-07-30T11:58:52;2.97;;;1.40;;
11384;SDS011;5747;56.748;13.882;2023-07-30T12:01:22;2.67;;;1.50;;
11384;SDS011;5747;56.748;13.882;2023-07-30T12:03:53;2.40;;;1.40;;
11384;SDS011;5747;56.748;13.882;2023-07-30T12:06:23;3.50;;;1.30;;
11384;SDS011;5747;56.748;13.882;2023-07-30T12:08:51;4.10;;;1.30;;
11384;SDS011;5747;56.748;13.882;2023-07-30T12:11:19;3.63;;;1.43;;
11384;SDS011;5747;56.748;13.882;2023-07-30T12:13:47;4.00;;;1.60;;
11384;SDS011;5747;56.748;13.882;2023-07-30T12:16:18;4.27;;;1.40;;
11384;SDS011;5747;56.748;13.882;2023-07-30T12:18:47;2.53;;;1.30;;
11384;SDS011;5747;56.748;13.882;2023-07-30T12:21:16;4.27;;;1.40;;
11384;SDS011;5747;56.748;13.882;2023-07-30T12:23:44;6.83;;;1.53;;
11384;SDS011;5747;56.748;13.882;2023-07-30T12:26:12;3.17;;;1.50;;
11384;SDS011;5747;56.748;13.882;2023-07-30T12:28:40;3.10;;;1.53;;
11384;SDS011;5747;56.748;13.882;2023-07-30T12:31:08;2.70;;;1.60;;
11384;SDS011;5747;56.748;13.882;2023-07-30T12:33:38;3.27;;;1.50;;
11384;SDS011;5747;56.748;13.882;2023-07-30T12:36:06;4.20;;;2.30;;
11384;SDS011;5747;56.748;13.882;2023-07-30T12:38:34;3.80;;;1.43;;
11384;SDS011;5747;56.748;13.882;2023-07-30T12:41:02;5.37;;;1.60;;
11384;SDS011;5747;56.748;13.882;2023-07-30T12:43:30;2.23;;;1.47;;
11384;SDS011;5747;56.748;13.882;2023-07-30T12:45:59;2.90;;;1.40;;
11384;SDS011;5747;56.748;13.882;2023-07-30T12:48:27;4.17;;;1.70;;
11384;SDS011;5747;56.748;13.882;2023-07-30T12:50:57;3.13;;;1.70;;
11384;SDS011;5747;56.748;13.882;2023-07-30T12:53:25;4.40;;;2.03;;
11384;SDS011;5747;56.748;13.882;2023-07-30T12:55:53;7.20;;;2.37;;
11384;SDS011;5747;56.748;13.882;2023-07-30T12:58:21;3.87;;;1.70;;
11384;SDS011;5747;56.748;13.882;2023-07-30T13:00:49;3.10;;;1.33;;
11384;SDS011;5747;56.748;13.882;2023-07-30T13:03:17;3.33;;;1.60;;
11384;SDS011;5747;56.748;13.882;2023-07-30T13:05:46;7.07;;;1.83;;
11384;SDS011;5747;56.748;13.882;2023-07-30T13:08:15;4.33;;;1.57;;
11384;SDS011;5747;56.748;13.882;2023-07-30T13:10:43;2.73;;;1.60;;
11384;SDS011;5747;56.748;13.882;2023-07-30T13:13:11;3.63;;;1.70;;
11384;SDS011;5747;56.748;13.882;2023-07-30T13:15:40;3.57;;;1.30;;
11384;SDS011;5747;56.748;13.882;2023-07-30T13:18:08;5.70;;;1.50;;
11384;SDS011;5747;56.748;13.882;2023-07-30T13:20:36;4.53;;;1.70;;
11384;SDS011;5747;56.748;13.882;2023-07-30T13:23:04;4.47;;;1.50;;
11384;SDS011;5747;56.748;13.882;2023-07-30T13:25:33;3.07;;;1.50;;
11384;SDS011;5747;56.748;13.882;2023-07-30T13:28:02;6.57;;;1.50;;
11384;SDS011;5747;56.748;13.882;2023-07-30T13:30:30;3.30;;;1.50;;
11384;SDS011;5747;56.748;13.882;2023-07-30T13:32:58;2.57;;;1.53;;
11384;SDS011;5747;56.748;13.882;2023-07-30T13:35:27;3.57;;;1.40;;
11384;SDS011;5747;56.748;13.882;2023-07-30T13:37:55;3.93;;;1.50;;
11384;SDS011;5747;56.748;13.882;2023-07-30T13:40:23;2.40;;;1.20;;
11384;SDS011;5747;56.748;13.882;2023-07-30T13:42:52;3.90;;;1.80;;
11384;SDS011;5747;56.748;13.882;2023-07-30T13:45:20;3.60;;;1.53;;
11384;SDS011;5747;56.748;13.882;2023-07-30T13:47:49;2.70;;;1.47;;
11384;SDS011;5747;56.748;13.882;2023-07-30T13:50:17;3.40;;;1.70;;
11384;SDS011;5747;56.748;13.882;2023-07-30T13:52:45;3.80;;;1.53;;
11384;SDS011;5747;56.748;13.882;2023-07-30T13:55:14;3.97;;;1.63;;
11384;SDS011;5747;56.748;13.882;2023-07-30T13:57:43;3.23;;;1.57;;
11384;SDS011;5747;56.748;13.882;2023-07-30T14:00:13;6.87;;;1.77;;
11384;SDS011;5747;56.748;13.882;2023-07-30T14:02:41;2.23;;;1.60;;
11384;SDS011;5747;56.748;13.882;2023-07-30T14:05:10;4.30;;;1.60;;
11384;SDS011;5747;56.748;13.882;2023-07-30T14:07:38;4.83;;;1.80;;
11384;SDS011;5747;56.748;13.882;2023-07-30T14:10:07;2.63;;;1.60;;
11384;SDS011;5747;56.748;13.882;2023-07-30T14:12:36;3.40;;;1.53;;
11384;SDS011;5747;56.748;13.882;2023-07-30T14:15:05;5.50;;;1.73;;
11384;SDS011;5747;56.748;13.882;2023-07-30T14:17:35;2.97;;;1.63;;
11384;SDS011;5747;56.748;13.882;2023-07-30T14:20:03;4.43;;;1.80;;
11384;SDS011;5747;56.748;13.882;2023-07-30T14:22:32;3.33;;;2.00;;
11384;SDS011;5747;56.748;13.882;2023-07-30T14:25:01;3.20;;;1.50;;
11384;SDS011;5747;56.748;13.882;2023-07-30T14:27:29;3.73;;;1.70;;
11384;SDS011;5747;56.748;13.882;2023-07-30T14:29:58;2.90;;;1.80;;
11384;SDS011;5747;56.748;13.882;2023-07-30T14:32:26;1.97;;;1.40;;
11384;SDS011;5747;56.748;13.882;2023-07-30T14:34:55;3.00;;;1.40;;
11384;SDS011;5747;56.748;13.882;2023-07-30T14:37:23;2.67;;;1.50;;
11384;SDS011;5747;56.748;13.882;2023-07-30T14:39:51;2.40;;;1.60;;
11384;SDS011;5747;56.748;13.882;2023-07-30T14:42:20;3.37;;;1.60;;
11384;SDS011;5747;56.748;13.882;2023-07-30T14:44:48;2.83;;;1.40;;
11384;SDS011;5747;56.748;13.882;2023-07-30T14:47:16;2.97;;;1.77;;
11384;SDS011;5747;56.748;13.882;2023-07-30T14:49:45;2.63;;;1.57;;